createdAt,value
2019-06-25T00:00:33.774Z,19.10
2019-06-25T00:03:02.629Z,19.10
2019-06-25T00:05:31.768Z,19.00
2019-06-25T00:08:00.609Z,19.00
2019-06-25T00:10:29.482Z,18.90
2019-06-25T00:12:58.270Z,18.90
2019-06-25T00:15:27.035Z,18.90
2019-06-25T00:17:55.782Z,18.90
2019-06-25T00:20:24.669Z,18.90
2019-06-25T00:22:53.523Z,18.80
2019-06-25T00:25:22.274Z,18.80
2019-06-25T00:27:51.042Z,18.70
2019-06-25T00:30:19.916Z,18.70
2019-06-25T00:32:48.853Z,18.60
2019-06-25T00:35:17.752Z,18.60
2019-06-25T00:37:46.502Z,18.60
2019-06-25T00:40:15.570Z,18.50
2019-06-25T00:42:44.373Z,18.40
2019-06-25T00:45:13.645Z,18.40
2019-06-25T00:47:42.531Z,18.30
2019-06-25T00:50:11.494Z,18.40
2019-06-25T00:52:40.354Z,18.40
2019-06-25T00:55:10.061Z,18.30
2019-06-25T00:57:38.808Z,18.30
2019-06-25T01:00:13.046Z,18.30
2019-06-25T01:02:44.731Z,18.30
2019-06-25T01:05:13.768Z,18.30
2019-06-25T01:07:42.838Z,18.30
2019-06-25T01:10:12.037Z,18.20
2019-06-25T01:12:40.991Z,18.20
2019-06-25T01:15:10.263Z,18.20
2019-06-25T01:17:39.050Z,18.20
2019-06-25T01:20:07.977Z,18.10
2019-06-25T01:22:36.881Z,18.10
2019-06-25T01:25:06.157Z,18.00
2019-06-25T01:27:35.081Z,18.00
2019-06-25T01:30:04.944Z,18.00
2019-06-25T01:32:33.884Z,18.00
2019-06-25T01:35:02.786Z,17.90
2019-06-25T01:37:31.589Z,17.90
2019-06-25T01:40:00.357Z,17.80
2019-06-25T01:42:29.121Z,17.80
2019-06-25T01:44:58.062Z,17.90
2019-06-25T01:47:26.790Z,17.80
2019-06-25T01:49:55.533Z,17.80
2019-06-25T01:52:24.433Z,17.80
2019-06-25T01:54:53.234Z,17.70
2019-06-25T01:57:22.109Z,17.70
2019-06-25T01:59:50.930Z,17.70
2019-06-25T02:02:19.785Z,17.70
2019-06-25T02:04:48.539Z,17.70
2019-06-25T02:07:17.385Z,17.70
2019-06-25T02:09:46.321Z,17.70
2019-06-25T02:12:15.180Z,17.60
2019-06-25T02:14:44.164Z,17.60
2019-06-25T02:17:13.235Z,17.50
2019-06-25T02:19:42.028Z,17.50
2019-06-25T02:22:10.767Z,17.50
2019-06-25T02:24:39.520Z,17.50
2019-06-25T02:27:08.414Z,17.50
2019-06-25T02:29:37.176Z,17.50
2019-06-25T02:32:06.009Z,17.50
2019-06-25T02:34:38.773Z,17.40
2019-06-25T02:37:05.551Z,17.40
2019-06-25T02:39:34.424Z,17.40
2019-06-25T02:42:03.346Z,17.40
2019-06-25T02:44:32.094Z,17.40
2019-06-25T02:47:00.809Z,17.30
2019-06-25T02:49:31.856Z,17.30
2019-06-25T02:52:00.696Z,17.30
2019-06-25T02:54:29.534Z,17.30
2019-06-25T02:56:58.266Z,17.30
2019-06-25T02:59:27.365Z,17.20
2019-06-25T03:01:56.178Z,17.20
2019-06-25T03:04:25.080Z,17.20
2019-06-25T03:06:53.830Z,17.20
2019-06-25T03:09:22.755Z,17.20
2019-06-25T03:11:51.588Z,17.20
2019-06-25T03:14:20.310Z,17.20
2019-06-25T03:16:49.093Z,17.20
2019-06-25T03:19:21.354Z,17.30
2019-06-25T03:21:50.162Z,17.30
2019-06-25T03:24:18.980Z,17.30
2019-06-25T03:26:48.006Z,17.30
2019-06-25T03:29:16.928Z,17.30
2019-06-25T03:32:05.058Z,17.30
2019-06-25T03:34:16.628Z,17.30
2019-06-25T03:36:45.419Z,17.30
2019-06-25T03:39:14.227Z,17.30
2019-06-25T03:41:43.024Z,17.30
2019-06-25T03:44:11.853Z,17.30
2019-06-25T03:46:40.762Z,17.30
2019-06-25T03:49:09.517Z,17.30
2019-06-25T03:51:38.422Z,17.30
2019-06-25T03:54:07.288Z,17.40
2019-06-25T03:56:36.196Z,17.40
2019-06-25T03:59:05.077Z,17.40
2019-06-25T04:01:34.097Z,17.40
2019-06-25T04:04:02.814Z,17.40
2019-06-25T04:06:31.580Z,17.40
2019-06-25T04:09:00.309Z,17.50
2019-06-25T04:11:29.085Z,17.50
2019-06-25T04:13:57.940Z,17.50
2019-06-25T04:16:28.535Z,17.60
2019-06-25T04:18:57.411Z,17.60
2019-06-25T04:21:26.185Z,17.70
2019-06-25T04:23:54.926Z,17.70
2019-06-25T04:26:23.909Z,17.80
2019-06-25T04:28:52.886Z,17.90
2019-06-25T04:31:21.787Z,18.00
2019-06-25T04:33:50.799Z,18.10
2019-06-25T04:36:21.930Z,18.20
2019-06-25T04:38:50.679Z,18.30
2019-06-25T04:41:19.573Z,18.40
2019-06-25T04:43:48.414Z,18.50
2019-06-25T04:46:17.178Z,18.60
2019-06-25T04:48:46.189Z,18.70
2019-06-25T04:51:15.072Z,18.80
2019-06-25T04:53:44.164Z,18.90
2019-06-25T04:56:12.970Z,19.00
2019-06-25T04:58:41.832Z,19.00
2019-06-25T05:01:10.785Z,19.10
2019-06-25T05:03:39.546Z,19.20
2019-06-25T05:06:08.501Z,19.30
2019-06-25T05:08:37.411Z,19.30
2019-06-25T05:11:06.251Z,19.40
2019-06-25T05:13:35.019Z,19.50
2019-06-25T05:16:04.169Z,19.60
2019-06-25T05:18:33.594Z,19.70
2019-06-25T05:21:02.531Z,19.90
2019-06-25T05:23:31.739Z,19.90
2019-06-25T05:26:00.682Z,20.10
2019-06-25T05:28:29.684Z,20.30
2019-06-25T05:30:58.580Z,20.60
2019-06-25T05:33:27.841Z,20.70
2019-06-25T05:36:03.084Z,20.70
2019-06-25T05:38:32.133Z,20.80
2019-06-25T05:41:01.016Z,20.80
2019-06-25T05:43:29.960Z,20.80
2019-06-25T05:45:58.975Z,20.80
2019-06-25T05:48:27.826Z,20.80
2019-06-25T05:50:56.892Z,20.80
2019-06-25T05:53:25.805Z,20.90
2019-06-25T05:55:54.608Z,21.00
2019-06-25T05:58:23.422Z,21.00
2019-06-25T06:00:52.210Z,21.10
2019-06-25T06:03:21.079Z,21.10
2019-06-25T06:05:49.833Z,21.20
2019-06-25T06:08:18.620Z,21.20
2019-06-25T06:10:47.950Z,21.30
2019-06-25T06:13:16.785Z,21.40
2019-06-25T06:15:45.846Z,21.50
2019-06-25T06:18:38.511Z,21.60
2019-06-25T06:21:11.398Z,21.70
2019-06-25T06:23:40.645Z,21.80
2019-06-25T06:26:17.383Z,21.90
2019-06-25T06:28:40.469Z,22.00
2019-06-25T06:31:17.248Z,22.10
2019-06-25T06:33:40.622Z,22.20
2019-06-25T06:36:09.910Z,22.30
2019-06-25T06:38:38.957Z,22.40
2019-06-25T06:41:08.050Z,22.50
2019-06-25T06:43:37.040Z,22.60
2019-06-25T06:46:06.272Z,22.60
2019-06-25T06:48:35.216Z,22.70
2019-06-25T06:51:04.512Z,22.80
2019-06-25T06:53:33.602Z,22.80
2019-06-25T06:56:02.780Z,22.90
2019-06-25T06:58:31.851Z,23.00
2019-06-25T07:01:09.468Z,23.00
2019-06-25T07:03:51.658Z,23.10
2019-06-25T07:06:07.254Z,23.20
2019-06-25T07:08:36.989Z,23.20
2019-06-25T07:11:06.549Z,23.30
2019-06-25T07:13:35.774Z,23.50
2019-06-25T07:16:05.050Z,23.60
2019-06-25T07:18:34.262Z,23.60
2019-06-25T07:21:03.216Z,23.70
2019-06-25T07:23:32.338Z,23.80
2019-06-25T07:26:01.433Z,23.90
2019-06-25T07:28:31.021Z,24.00
2019-06-25T07:31:03.248Z,24.10
2019-06-25T07:33:34.040Z,24.20
2019-06-25T07:36:03.396Z,24.30
2019-06-25T07:38:32.543Z,24.40
2019-06-25T07:41:01.911Z,24.50
2019-06-25T07:43:30.779Z,24.60
2019-06-25T07:45:59.650Z,24.70
2019-06-25T07:48:32.129Z,24.70
2019-06-25T07:51:01.296Z,24.80
2019-06-25T07:53:30.518Z,24.90
2019-06-25T07:55:59.959Z,25.00
2019-06-25T07:58:28.993Z,25.10
2019-06-25T08:00:58.287Z,25.30
2019-06-25T08:03:29.038Z,25.30
2019-06-25T08:05:58.476Z,25.40
2019-06-25T08:08:27.622Z,25.50
2019-06-25T08:10:56.888Z,25.50
2019-06-25T08:13:25.834Z,25.60
2019-06-25T08:15:55.044Z,25.70
2019-06-25T08:18:24.220Z,25.80
2019-06-25T08:20:53.480Z,25.80
2019-06-25T08:23:22.555Z,25.70
2019-06-25T08:25:51.434Z,25.70
2019-06-25T08:28:20.335Z,25.70
2019-06-25T08:30:49.486Z,25.80
2019-06-25T08:33:18.254Z,25.90
2019-06-25T08:35:47.281Z,26.00
2019-06-25T08:38:16.138Z,26.10
2019-06-25T08:40:45.551Z,26.20
2019-06-25T08:43:14.683Z,26.30
2019-06-25T08:45:43.810Z,26.40
2019-06-25T08:48:20.146Z,26.50
2019-06-25T08:50:48.983Z,26.50
2019-06-25T08:53:17.745Z,26.60
2019-06-25T08:55:46.621Z,26.70
2019-06-25T08:58:15.739Z,26.90
2019-06-25T09:00:44.541Z,27.10
2019-06-25T09:03:13.543Z,27.20
2019-06-25T09:05:42.656Z,27.40
2019-06-25T09:08:11.750Z,27.60
2019-06-25T09:10:40.574Z,27.60
2019-06-25T09:13:09.827Z,27.60
2019-06-25T09:15:38.759Z,27.70
2019-06-25T09:18:07.572Z,27.80
2019-06-25T09:20:36.533Z,27.80
2019-06-25T09:23:05.571Z,27.80
2019-06-25T09:25:34.715Z,27.90
2019-06-25T09:28:03.734Z,27.90
2019-06-25T09:30:32.561Z,28.10
2019-06-25T09:33:01.554Z,28.20
2019-06-25T09:35:30.410Z,28.30
2019-06-25T09:37:59.389Z,28.40
2019-06-25T09:40:27.899Z,28.50
2019-06-25T09:42:55.525Z,28.70
2019-06-25T09:45:33.559Z,28.90
2019-06-25T09:48:03.132Z,29.10
2019-06-25T09:50:32.898Z,29.40
2019-06-25T09:53:01.903Z,29.50
2019-06-25T09:55:30.997Z,29.70
2019-06-25T09:57:59.966Z,29.80
2019-06-25T10:00:36.753Z,30.00
2019-06-25T10:03:06.031Z,30.00
2019-06-25T10:05:34.896Z,30.00
2019-06-25T10:08:03.786Z,30.10
2019-06-25T10:10:32.769Z,30.10
2019-06-25T10:13:01.735Z,30.20
2019-06-25T10:21:38.762Z,30.20
2019-06-25T10:24:28.077Z,30.10
2019-06-25T10:27:12.635Z,30.00
2019-06-25T10:29:42.560Z,30.00
2019-06-25T10:32:11.737Z,29.90
2019-06-25T10:34:40.750Z,29.90
2019-06-25T10:37:09.647Z,29.90
2019-06-25T10:39:38.617Z,30.00
2019-06-25T10:42:07.681Z,30.10
2019-06-25T10:44:36.603Z,30.20
2019-06-25T10:47:05.359Z,30.40
2019-06-25T10:49:34.768Z,30.50
2019-06-25T10:52:03.786Z,30.60
2019-06-25T10:54:32.641Z,30.60
2019-06-25T10:57:01.510Z,30.70
2019-06-25T10:59:30.504Z,30.80
2019-06-25T11:01:59.353Z,30.80
2019-06-25T11:04:28.305Z,30.80
2019-06-25T11:07:02.947Z,30.90
2019-06-25T11:09:27.692Z,30.80
2019-06-25T11:11:56.469Z,30.90
2019-06-25T11:14:25.254Z,31.00
2019-06-25T11:16:54.031Z,30.90
2019-06-25T11:19:23.007Z,31.00
2019-06-25T11:21:52.643Z,31.00
2019-06-25T11:24:21.765Z,31.00
2019-06-25T11:26:50.758Z,31.00
2019-06-25T11:29:19.817Z,31.00
2019-06-25T11:31:48.611Z,31.00
2019-06-25T11:34:17.505Z,31.10
2019-06-25T11:36:46.636Z,31.10
2019-06-25T11:39:15.458Z,31.10
2019-06-25T11:41:44.433Z,31.10
2019-06-25T11:44:13.456Z,31.20
2019-06-25T11:46:42.332Z,31.30
2019-06-25T11:49:11.223Z,31.30
2019-06-25T11:51:40.190Z,31.30
2019-06-25T11:54:09.052Z,31.30
2019-06-25T11:56:37.883Z,31.40
2019-06-25T11:59:07.004Z,31.50
2019-06-25T12:01:35.820Z,31.50
2019-06-25T12:04:04.719Z,31.50
2019-06-25T12:06:52.357Z,31.40
2019-06-25T12:09:05.914Z,31.40
2019-06-25T12:11:34.725Z,31.40
2019-06-25T12:14:03.864Z,31.50
2019-06-25T12:16:33.120Z,31.50
2019-06-25T12:19:02.183Z,31.50
2019-06-25T12:21:31.199Z,31.60
2019-06-25T12:24:00.034Z,31.60
2019-06-25T12:26:28.835Z,31.50
2019-06-25T12:28:57.883Z,31.50
2019-06-25T12:31:26.789Z,31.70
2019-06-25T12:33:55.661Z,31.70
2019-06-25T12:36:24.553Z,31.80
2019-06-25T12:38:53.479Z,31.80
2019-06-25T12:41:22.344Z,31.90
2019-06-25T12:43:51.331Z,31.90
2019-06-25T12:46:20.269Z,32.00
2019-06-25T12:48:49.055Z,31.90
2019-06-25T12:51:17.903Z,32.00
2019-06-25T12:53:46.834Z,32.00
2019-06-25T12:56:15.626Z,32.00
2019-06-25T12:58:44.405Z,32.00
2019-06-25T13:01:13.215Z,32.10
2019-06-25T13:03:42.036Z,32.00
2019-06-25T13:06:13.641Z,32.00
2019-06-25T13:08:42.699Z,32.00
2019-06-25T13:11:11.582Z,32.10
2019-06-25T13:13:40.353Z,32.20
2019-06-25T13:16:09.328Z,32.20
2019-06-25T13:18:38.196Z,32.30
2019-06-25T13:21:06.974Z,32.20
2019-06-25T13:23:35.800Z,32.20
2019-06-25T13:26:04.925Z,32.20
2019-06-25T13:28:33.886Z,32.20
2019-06-25T13:31:02.840Z,32.30
2019-06-25T13:33:31.994Z,32.30
2019-06-25T13:36:00.965Z,32.30
2019-06-25T13:38:30.076Z,32.30
2019-06-25T13:40:58.930Z,32.40
2019-06-25T13:43:27.705Z,32.40
2019-06-25T13:45:56.717Z,32.50
2019-06-25T13:48:25.519Z,32.50
2019-06-25T13:50:57.619Z,32.50
2019-06-25T13:53:25.151Z,32.50
2019-06-25T13:55:54.143Z,32.50
2019-06-25T13:58:22.954Z,32.60
2019-06-25T14:00:52.138Z,32.70
2019-06-25T14:03:21.006Z,32.70
2019-06-25T14:05:50.054Z,32.70
2019-06-25T14:08:19.006Z,32.70
2019-06-25T14:11:07.150Z,32.70
2019-06-25T14:13:36.179Z,32.70
2019-06-25T14:16:05.095Z,32.80
2019-06-25T14:18:34.042Z,32.70
2019-06-25T14:21:03.020Z,32.80
2019-06-25T14:23:31.887Z,32.80
2019-06-25T14:26:10.459Z,32.90
2019-06-25T14:28:31.725Z,32.90
2019-06-25T14:31:00.822Z,32.90
2019-06-25T14:33:29.612Z,32.90
2019-06-25T14:35:58.875Z,32.80
2019-06-25T14:38:27.809Z,32.80
2019-06-25T14:40:56.630Z,32.90
2019-06-25T14:43:25.543Z,32.90
2019-06-25T14:45:54.514Z,32.90
2019-06-25T14:48:23.426Z,32.90
2019-06-25T14:50:52.343Z,33.00
2019-06-25T14:53:21.380Z,33.00
2019-06-25T14:55:50.187Z,33.00
2019-06-25T14:58:19.045Z,33.00
2019-06-25T15:00:48.061Z,33.00
2019-06-25T15:03:16.976Z,32.90
2019-06-25T15:05:45.753Z,33.00
2019-06-25T15:08:27.269Z,32.90
2019-06-25T15:10:45.647Z,33.00
2019-06-25T15:13:14.478Z,32.90
2019-06-25T15:15:43.882Z,32.90
2019-06-25T15:18:12.889Z,32.90
2019-06-25T15:20:41.699Z,32.90
2019-06-25T15:23:10.540Z,32.80
2019-06-25T15:25:39.650Z,32.90
2019-06-25T15:28:08.605Z,32.90
2019-06-25T15:30:37.425Z,33.00
2019-06-25T15:33:06.524Z,33.00
2019-06-25T15:35:35.645Z,33.00
2019-06-25T15:38:04.818Z,33.10
2019-06-25T15:40:34.126Z,33.00
2019-06-25T15:43:03.089Z,33.10
2019-06-25T15:45:32.124Z,33.10
2019-06-25T15:48:00.960Z,33.00
2019-06-25T15:50:29.813Z,32.90
2019-06-25T15:52:58.642Z,32.90
2019-06-25T15:55:27.729Z,32.90
2019-06-25T15:57:57.489Z,32.90
2019-06-25T16:00:26.647Z,32.90
2019-06-25T16:02:55.842Z,32.90
2019-06-25T16:05:25.303Z,33.00
2019-06-25T16:07:54.525Z,33.10
2019-06-25T16:10:26.516Z,33.00
2019-06-25T16:12:55.904Z,33.10
2019-06-25T16:15:37.749Z,33.10
2019-06-25T16:17:56.657Z,33.00
2019-06-25T16:20:25.490Z,33.00
2019-06-25T16:22:54.552Z,33.00
2019-06-25T16:25:23.349Z,33.00
2019-06-25T16:27:52.266Z,33.00
2019-06-25T16:30:21.292Z,33.00
2019-06-25T16:32:50.394Z,33.00
2019-06-25T16:35:19.203Z,33.10
2019-06-25T16:37:48.030Z,33.20
2019-06-25T16:40:17.096Z,33.30
2019-06-25T16:42:45.970Z,33.30
2019-06-25T16:45:14.844Z,33.20
2019-06-25T16:47:43.942Z,33.10
2019-06-25T16:50:13.150Z,33.10
2019-06-25T16:52:41.911Z,32.90
2019-06-25T16:55:10.866Z,32.90
2019-06-25T16:57:39.916Z,32.80
2019-06-25T17:00:09.036Z,32.70
2019-06-25T17:02:52.759Z,32.60
2019-06-25T17:05:09.363Z,32.60
2019-06-25T17:07:38.177Z,32.60
2019-06-25T17:10:07.238Z,32.50
2019-06-25T17:12:36.324Z,32.40
2019-06-25T17:15:05.775Z,32.30
2019-06-25T17:17:34.881Z,32.30
2019-06-25T17:20:04.294Z,32.20
2019-06-25T17:22:33.885Z,32.10
2019-06-25T17:25:03.079Z,32.10
2019-06-25T17:27:45.717Z,32.00
2019-06-25T17:30:03.192Z,32.00
2019-06-25T17:32:36.397Z,32.00
2019-06-25T17:35:06.781Z,32.00
2019-06-25T17:37:36.269Z,32.00
2019-06-25T17:40:06.136Z,32.00
2019-06-25T17:42:35.737Z,32.00
2019-06-25T17:45:05.519Z,32.00
2019-06-25T17:47:35.084Z,32.00
2019-06-25T17:50:04.582Z,31.90
2019-06-25T17:52:35.473Z,31.90
2019-06-25T17:55:04.932Z,31.80
2019-06-25T17:57:33.913Z,31.80
2019-06-25T18:00:02.879Z,31.70
2019-06-25T18:02:31.947Z,31.60
2019-06-25T18:05:00.946Z,31.60
2019-06-25T18:07:30.103Z,31.50
2019-06-25T18:10:07.655Z,31.50
2019-06-25T18:12:30.375Z,31.40
2019-06-25T18:14:59.289Z,31.40
2019-06-25T18:17:28.169Z,31.40
2019-06-25T18:19:57.286Z,31.40
2019-06-25T18:22:26.358Z,31.30
2019-06-25T18:24:55.595Z,31.20
2019-06-25T18:27:25.137Z,31.10
2019-06-25T18:29:54.205Z,31.00
2019-06-25T18:32:25.353Z,30.90
2019-06-25T18:34:54.604Z,30.80
2019-06-25T18:37:23.633Z,30.70
2019-06-25T18:39:52.932Z,30.70
2019-06-25T18:42:23.788Z,30.50
2019-06-25T18:45:03.913Z,30.40
2019-06-25T18:47:26.369Z,30.30
2019-06-25T18:49:57.154Z,30.20
2019-06-25T18:52:26.198Z,30.10
2019-06-25T18:54:55.318Z,30.00
2019-06-25T18:57:25.971Z,29.90
2019-06-25T18:59:55.588Z,29.90
2019-06-25T19:02:28.583Z,29.70
2019-06-25T19:05:17.531Z,29.60
2019-06-25T19:07:52.151Z,29.50
2019-06-25T19:10:21.335Z,29.40
2019-06-25T19:12:50.684Z,29.30
2019-06-25T19:15:20.375Z,29.20
2019-06-25T19:17:49.914Z,29.10
2019-06-25T19:20:23.523Z,29.00
2019-06-25T19:22:58.358Z,28.90
2019-06-25T19:25:30.100Z,28.80
2019-06-25T19:28:03.004Z,28.70
2019-06-25T19:30:32.291Z,28.60
2019-06-25T19:33:02.023Z,28.40
2019-06-25T19:35:32.518Z,28.30
2019-06-25T19:38:02.851Z,28.20
2019-06-25T19:40:32.013Z,28.20
2019-06-25T19:43:02.435Z,28.10
2019-06-25T19:45:31.582Z,28.00
2019-06-25T19:48:20.213Z,27.90
2019-06-25T19:50:50.870Z,27.80
2019-06-25T19:53:20.048Z,27.70
2019-06-25T19:55:49.120Z,27.60
2019-06-25T19:58:18.600Z,27.50
2019-06-25T20:01:01.729Z,27.40
2019-06-25T20:03:27.868Z,27.30
2019-06-25T20:05:56.922Z,27.20
2019-06-25T20:08:26.315Z,27.10
2019-06-25T20:11:11.440Z,27.00
2019-06-25T20:13:28.727Z,26.90
2019-06-25T20:15:59.749Z,26.90
2019-06-25T20:18:28.722Z,26.80
2019-06-25T20:20:57.740Z,26.70
2019-06-25T20:23:46.383Z,26.60
2019-06-25T20:26:15.887Z,26.50
2019-06-25T20:28:45.202Z,26.40
2019-06-25T20:31:14.246Z,26.40
2019-06-25T20:33:43.717Z,26.30
2019-06-25T20:36:12.870Z,26.20
2019-06-25T20:38:42.359Z,26.20
2019-06-25T20:41:27.547Z,26.10
2019-06-25T20:43:44.431Z,26.10
2019-06-25T20:46:13.761Z,26.00
2019-06-25T20:48:43.260Z,26.00
2019-06-25T20:51:13.270Z,25.90
2019-06-25T20:54:19.751Z,25.90
2019-06-25T20:56:50.205Z,25.90
2019-06-25T20:59:19.343Z,25.80
2019-06-25T21:01:48.485Z,25.70
2019-06-25T21:04:17.429Z,25.60
2019-06-25T21:07:05.712Z,25.60
2019-06-25T21:09:34.559Z,25.50
2019-06-25T21:12:03.494Z,25.50
2019-06-25T21:14:33.131Z,25.40
2019-06-25T21:17:02.278Z,25.40
2019-06-25T21:19:42.429Z,25.30
2019-06-25T21:22:03.122Z,25.20
2019-06-25T21:24:32.176Z,25.20
2019-06-25T21:27:01.087Z,25.10
2019-06-25T21:29:30.211Z,25.10
2019-06-25T21:31:59.222Z,25.00
2019-06-25T21:34:28.242Z,25.00
2019-06-25T21:36:57.265Z,24.90
2019-06-25T21:39:26.307Z,24.90
2019-06-25T21:42:04.771Z,24.80
2019-06-25T21:44:25.893Z,24.80
2019-06-25T21:47:06.313Z,24.70
2019-06-25T21:49:25.696Z,24.70
2019-06-25T21:51:54.607Z,24.60
2019-06-25T21:54:23.817Z,24.60
2019-06-25T21:56:52.963Z,24.50
2019-06-25T21:59:21.996Z,24.50
2019-06-25T22:01:52.737Z,24.40
2019-06-25T22:04:21.770Z,24.40
2019-06-25T22:06:51.382Z,24.30
2019-06-25T22:09:20.420Z,24.30
2019-06-25T22:11:49.340Z,24.30
2019-06-25T22:14:18.257Z,24.20
2019-06-25T22:16:47.180Z,24.20
2019-06-25T22:19:16.413Z,24.10
2019-06-25T22:21:45.337Z,24.00
2019-06-25T22:24:15.393Z,24.00
2019-06-25T22:26:44.477Z,24.00
2019-06-25T22:29:13.322Z,23.90
2019-06-25T22:31:42.218Z,23.90
2019-06-25T22:34:11.076Z,23.80
2019-06-25T22:36:39.936Z,23.80
2019-06-25T22:39:09.075Z,23.70
2019-06-25T22:41:38.069Z,23.70
2019-06-25T22:44:06.974Z,23.70
2019-06-25T22:46:35.800Z,23.60
2019-06-25T22:49:04.811Z,23.60
2019-06-25T22:51:33.800Z,23.60
2019-06-25T22:54:02.719Z,23.50
2019-06-25T22:56:31.919Z,23.50
2019-06-25T22:59:00.873Z,23.50
2019-06-25T23:01:29.665Z,23.50
2019-06-25T23:03:58.776Z,23.40
2019-06-25T23:06:27.613Z,23.40
2019-06-25T23:08:56.460Z,23.30
2019-06-25T23:11:28.329Z,23.30
2019-06-25T23:13:56.007Z,23.20
2019-06-25T23:16:25.032Z,23.20
2019-06-25T23:18:53.956Z,23.20
2019-06-25T23:21:22.786Z,23.20
2019-06-25T23:23:51.681Z,23.10
2019-06-25T23:26:20.469Z,23.10
2019-06-25T23:28:49.477Z,23.10
2019-06-25T23:31:18.355Z,23.10
2019-06-25T23:33:47.474Z,23.10
2019-06-25T23:36:16.305Z,23.00
2019-06-25T23:38:45.236Z,23.00
2019-06-25T23:41:14.292Z,23.00
2019-06-25T23:43:43.117Z,23.00
2019-06-25T23:46:11.933Z,22.90
2019-06-25T23:48:40.779Z,22.90
2019-06-25T23:51:09.589Z,22.90
2019-06-25T23:53:38.458Z,22.90
2019-06-25T23:56:07.352Z,22.90
2019-06-25T23:58:36.243Z,22.80
